sensor_id;sensor_type;location;lat;lon;timestamp;P1;durP1;ratioP1;P2;durP2;ratioP2
57307;SDS011;43152;50.968;18.214;2023-03-15T00:00:47;21.70;;;3.70;;
57307;SDS011;43152;50.968;18.214;2023-03-15T00:18:00;5.80;;;2.00;;
57307;SDS011;43152;50.968;18.214;2023-03-15T00:27:48;8.50;;;1.00;;
57307;SDS011;43152;50.968;18.214;2023-03-15T00:37:31;3.90;;;1.20;;
57307;SDS011;43152;50.968;18.214;2023-03-15T00:47:17;19.40;;;2.60;;
57307;SDS011;43152;50.968;18.214;2023-03-15T00:57:00;12.70;;;3.20;;
57307;SDS011;43152;50.968;18.214;2023-03-15T01:06:51;8.70;;;2.30;;
57307;SDS011;43152;50.968;18.214;2023-03-15T01:16:33;6.70;;;0.90;;
57307;SDS011;43152;50.968;18.214;2023-03-15T01:26:17;7.70;;;1.10;;
57307;SDS011;43152;50.968;18.214;2023-03-15T01:36:10;16.40;;;3.50;;
57307;SDS011;43152;50.968;18.214;2023-03-15T01:55:47;22.30;;;4.00;;
57307;SDS011;43152;50.968;18.214;2023-03-15T02:05:30;33.70;;;5.20;;
57307;SDS011;43152;50.968;18.214;2023-03-15T02:15:25;25.60;;;3.50;;
57307;SDS011;43152;50.968;18.214;2023-03-15T02:25:25;7.80;;;2.50;;
57307;SDS011;43152;50.968;18.214;2023-03-15T02:35:27;19.50;;;4.40;;
57307;SDS011;43152;50.968;18.214;2023-03-15T02:45:15;12.00;;;5.20;;
57307;SDS011;43152;50.968;18.214;2023-03-15T02:54:57;17.10;;;2.20;;
57307;SDS011;43152;50.968;18.214;2023-03-15T03:04:45;31.60;;;8.00;;
57307;SDS011;43152;50.968;18.214;2023-03-15T03:14:27;14.60;;;3.10;;
57307;SDS011;43152;50.968;18.214;2023-03-15T03:24:10;19.20;;;2.60;;
57307;SDS011;43152;50.968;18.214;2023-03-15T03:34:00;18.00;;;3.00;;
57307;SDS011;43152;50.968;18.214;2023-03-15T03:43:43;10.60;;;2.00;;
57307;SDS011;43152;50.968;18.214;2023-03-15T03:53:25;14.60;;;6.10;;
57307;SDS011;43152;50.968;18.214;2023-03-15T04:03:10;6.70;;;1.20;;
57307;SDS011;43152;50.968;18.214;2023-03-15T04:20:13;33.40;;;5.50;;
57307;SDS011;43152;50.968;18.214;2023-03-15T04:30:05;35.50;;;4.00;;
57307;SDS011;43152;50.968;18.214;2023-03-15T04:39:48;18.60;;;3.70;;
57307;SDS011;43152;50.968;18.214;2023-03-15T04:49:30;10.10;;;2.20;;
57307;SDS011;43152;50.968;18.214;2023-03-15T04:59:14;25.60;;;6.00;;
57307;SDS011;43152;50.968;18.214;2023-03-15T05:08:56;12.20;;;2.80;;
57307;SDS011;43152;50.968;18.214;2023-03-15T05:18:39;23.20;;;6.90;;
57307;SDS011;43152;50.968;18.214;2023-03-15T05:28:23;27.20;;;5.70;;
57307;SDS011;43152;50.968;18.214;2023-03-15T05:38:13;6.30;;;1.40;;
57307;SDS011;43152;50.968;18.214;2023-03-15T05:47:57;16.90;;;2.30;;
57307;SDS011;43152;50.968;18.214;2023-03-15T05:57:40;7.40;;;1.30;;
57307;SDS011;43152;50.968;18.214;2023-03-15T06:07:24;12.80;;;2.50;;
57307;SDS011;43152;50.968;18.214;2023-03-15T06:17:07;20.70;;;3.70;;
57307;SDS011;43152;50.968;18.214;2023-03-15T06:26:50;12.40;;;1.80;;
57307;SDS011;43152;50.968;18.214;2023-03-15T06:36:33;15.60;;;3.40;;
57307;SDS011;43152;50.968;18.214;2023-03-15T06:46:17;22.10;;;2.50;;
57307;SDS011;43152;50.968;18.214;2023-03-15T06:55:59;18.30;;;0.70;;
57307;SDS011;43152;50.968;18.214;2023-03-15T07:05:43;14.30;;;2.50;;
57307;SDS011;43152;50.968;18.214;2023-03-15T07:15:28;11.90;;;1.40;;
57307;SDS011;43152;50.968;18.214;2023-03-15T07:25:10;17.90;;;1.60;;
57307;SDS011;43152;50.968;18.214;2023-03-15T07:34:56;27.10;;;3.30;;
57307;SDS011;43152;50.968;18.214;2023-03-15T07:44:42;19.60;;;1.00;;
57307;SDS011;43152;50.968;18.214;2023-03-15T08:01:41;18.90;;;2.90;;
57307;SDS011;43152;50.968;18.214;2023-03-15T08:11:25;6.40;;;1.10;;
57307;SDS011;43152;50.968;18.214;2023-03-15T08:21:08;13.20;;;2.50;;
57307;SDS011;43152;50.968;18.214;2023-03-15T08:30:51;4.10;;;0.50;;
57307;SDS011;43152;50.968;18.214;2023-03-15T08:40:33;2.30;;;0.40;;
57307;SDS011;43152;50.968;18.214;2023-03-15T08:50:20;5.60;;;1.10;;
57307;SDS011;43152;50.968;18.214;2023-03-15T09:12:43;12.30;;;1.20;;
57307;SDS011;43152;50.968;18.214;2023-03-15T09:22:35;13.80;;;1.00;;
57307;SDS011;43152;50.968;18.214;2023-03-15T09:32:21;9.30;;;1.20;;
57307;SDS011;43152;50.968;18.214;2023-03-15T09:42:07;2.00;;;0.40;;
57307;SDS011;43152;50.968;18.214;2023-03-15T09:52:55;8.90;;;1.40;;
57307;SDS011;43152;50.968;18.214;2023-03-15T10:10:45;15.10;;;1.50;;
57307;SDS011;43152;50.968;18.214;2023-03-15T10:20:54;8.00;;;2.60;;
57307;SDS011;43152;50.968;18.214;2023-03-15T10:31:08;6.10;;;0.80;;
57307;SDS011;43152;50.968;18.214;2023-03-15T10:41:34;8.10;;;1.20;;
57307;SDS011;43152;50.968;18.214;2023-03-15T10:52:01;3.80;;;0.70;;
57307;SDS011;43152;50.968;18.214;2023-03-15T11:12:31;8.10;;;1.50;;
57307;SDS011;43152;50.968;18.214;2023-03-15T11:22:35;2.70;;;0.60;;
57307;SDS011;43152;50.968;18.214;2023-03-15T11:32:24;8.80;;;3.70;;
57307;SDS011;43152;50.968;18.214;2023-03-15T11:45:23;44.90;;;2.50;;
57307;SDS011;43152;50.968;18.214;2023-03-15T11:55:16;7.90;;;1.00;;
57307;SDS011;43152;50.968;18.214;2023-03-15T12:15:50;4.60;;;1.40;;
57307;SDS011;43152;50.968;18.214;2023-03-15T12:25:55;7.80;;;1.30;;
57307;SDS011;43152;50.968;18.214;2023-03-15T12:35:46;29.40;;;4.90;;
57307;SDS011;43152;50.968;18.214;2023-03-15T12:45:38;8.30;;;2.10;;
57307;SDS011;43152;50.968;18.214;2023-03-15T12:55:38;6.80;;;0.80;;
57307;SDS011;43152;50.968;18.214;2023-03-15T13:16:42;28.00;;;5.10;;
57307;SDS011;43152;50.968;18.214;2023-03-15T13:26:58;13.60;;;2.10;;
57307;SDS011;43152;50.968;18.214;2023-03-15T13:37:16;7.60;;;0.30;;
57307;SDS011;43152;50.968;18.214;2023-03-15T13:47:30;7.60;;;1.40;;
57307;SDS011;43152;50.968;18.214;2023-03-15T13:57:17;4.70;;;0.40;;
57307;SDS011;43152;50.968;18.214;2023-03-15T14:17:28;7.00;;;0.80;;
57307;SDS011;43152;50.968;18.214;2023-03-15T14:27:24;7.80;;;1.60;;
57307;SDS011;43152;50.968;18.214;2023-03-15T14:47:37;5.90;;;1.10;;
57307;SDS011;43152;50.968;18.214;2023-03-15T14:57:35;4.50;;;1.70;;
57307;SDS011;43152;50.968;18.214;2023-03-15T15:07:20;11.30;;;1.40;;
57307;SDS011;43152;50.968;18.214;2023-03-15T15:24:20;6.80;;;1.90;;
57307;SDS011;43152;50.968;18.214;2023-03-15T15:34:04;1.90;;;0.80;;
57307;SDS011;43152;50.968;18.214;2023-03-15T15:43:58;33.50;;;7.00;;
57307;SDS011;43152;50.968;18.214;2023-03-15T15:53:56;6.70;;;1.60;;
57307;SDS011;43152;50.968;18.214;2023-03-15T16:03:42;9.50;;;2.30;;
57307;SDS011;43152;50.968;18.214;2023-03-15T16:13:35;8.90;;;2.10;;
57307;SDS011;43152;50.968;18.214;2023-03-15T16:23:18;15.80;;;4.00;;
57307;SDS011;43152;50.968;18.214;2023-03-15T16:33:08;35.60;;;3.80;;
57307;SDS011;43152;50.968;18.214;2023-03-15T16:42:56;4.90;;;0.90;;
57307;SDS011;43152;50.968;18.214;2023-03-15T16:52:40;27.70;;;3.80;;
57307;SDS011;43152;50.968;18.214;2023-03-15T17:02:36;19.20;;;5.20;;
57307;SDS011;43152;50.968;18.214;2023-03-15T17:12:26;8.40;;;1.90;;
57307;SDS011;43152;50.968;18.214;2023-03-15T17:22:14;10.90;;;3.90;;
57307;SDS011;43152;50.968;18.214;2023-03-15T17:32:09;15.80;;;3.40;;
57307;SDS011;43152;50.968;18.214;2023-03-15T17:41:52;6.50;;;2.60;;
57307;SDS011;43152;50.968;18.214;2023-03-15T17:51:39;22.40;;;6.70;;
57307;SDS011;43152;50.968;18.214;2023-03-15T18:01:34;11.60;;;3.60;;
57307;SDS011;43152;50.968;18.214;2023-03-15T18:11:25;12.70;;;3.50;;
57307;SDS011;43152;50.968;18.214;2023-03-15T18:21:12;12.80;;;3.10;;
57307;SDS011;43152;50.968;18.214;2023-03-15T18:30:56;10.80;;;3.80;;
57307;SDS011;43152;50.968;18.214;2023-03-15T18:40:40;31.40;;;7.30;;
57307;SDS011;43152;50.968;18.214;2023-03-15T18:50:27;39.30;;;8.80;;
57307;SDS011;43152;50.968;18.214;2023-03-15T19:00:13;43.10;;;15.20;;
57307;SDS011;43152;50.968;18.214;2023-03-15T19:10:00;16.10;;;6.00;;
57307;SDS011;43152;50.968;18.214;2023-03-15T19:19:42;54.10;;;12.60;;
57307;SDS011;43152;50.968;18.214;2023-03-15T19:29:26;58.70;;;18.50;;
57307;SDS011;43152;50.968;18.214;2023-03-15T19:39:09;47.40;;;16.40;;
57307;SDS011;43152;50.968;18.214;2023-03-15T19:48:53;51.90;;;17.60;;
57307;SDS011;43152;50.968;18.214;2023-03-15T19:58:36;53.00;;;16.60;;
57307;SDS011;43152;50.968;18.214;2023-03-15T20:08:18;71.40;;;21.00;;
57307;SDS011;43152;50.968;18.214;2023-03-15T20:18:01;161.50;;;45.90;;
57307;SDS011;43152;50.968;18.214;2023-03-15T20:27:45;85.90;;;34.60;;
57307;SDS011;43152;50.968;18.214;2023-03-15T20:37:33;102.00;;;28.20;;
57307;SDS011;43152;50.968;18.214;2023-03-15T20:47:16;108.20;;;31.40;;
57307;SDS011;43152;50.968;18.214;2023-03-15T20:57:01;95.90;;;31.20;;
57307;SDS011;43152;50.968;18.214;2023-03-15T21:06:47;97.00;;;27.20;;
57307;SDS011;43152;50.968;18.214;2023-03-15T21:16:30;52.60;;;18.70;;
57307;SDS011;43152;50.968;18.214;2023-03-15T21:26:14;107.00;;;31.50;;
57307;SDS011;43152;50.968;18.214;2023-03-15T21:44:30;81.30;;;26.10;;
57307;SDS011;43152;50.968;18.214;2023-03-15T21:54:16;70.10;;;25.40;;
57307;SDS011;43152;50.968;18.214;2023-03-15T22:03:59;51.30;;;17.30;;
57307;SDS011;43152;50.968;18.214;2023-03-15T22:13:42;87.10;;;23.20;;
57307;SDS011;43152;50.968;18.214;2023-03-15T22:23:25;153.80;;;31.20;;
57307;SDS011;43152;50.968;18.214;2023-03-15T22:33:13;98.50;;;28.20;;
57307;SDS011;43152;50.968;18.214;2023-03-15T22:43:00;53.30;;;19.10;;
57307;SDS011;43152;50.968;18.214;2023-03-15T22:52:43;62.50;;;18.90;;
57307;SDS011;43152;50.968;18.214;2023-03-15T23:21:42;37.40;;;17.10;;
57307;SDS011;43152;50.968;18.214;2023-03-15T23:31:38;40.90;;;16.40;;
57307;SDS011;43152;50.968;18.214;2023-03-15T23:41:23;29.40;;;13.20;;
57307;SDS011;43152;50.968;18.214;2023-03-15T23:51:06;35.60;;;12.70;;
